createdAt,value
2018-05-01T00:00:43.121Z,1012.11
2018-05-01T00:01:43.204Z,1012.16
2018-05-01T00:02:43.121Z,1012.16
2018-05-01T00:03:43.164Z,1012.18
2018-05-01T00:04:43.190Z,1012.23
2018-05-01T00:05:43.257Z,1012.2
2018-05-01T00:06:43.181Z,1012.16
2018-05-01T00:07:43.093Z,1012.19
2018-05-01T00:08:43.169Z,1012.25
2018-05-01T00:09:43.326Z,1012.25
2018-05-01T00:10:43.257Z,1012.34
2018-05-01T00:11:43.276Z,1012.25
2018-05-01T00:12:43.201Z,1012.28
2018-05-01T00:13:43.301Z,1012.31
2018-05-01T00:14:43.235Z,1012.33
2018-05-01T00:15:43.268Z,1012.41
2018-05-01T00:16:43.249Z,1012.4
2018-05-01T00:17:43.202Z,1012.45
2018-05-01T00:18:43.109Z,1012.48
2018-05-01T00:19:43.185Z,1012.52
2018-05-01T00:20:43.242Z,1012.53
2018-05-01T00:21:43.079Z,1012.53
2018-05-01T00:22:43.308Z,1012.5
2018-05-01T00:23:43.270Z,1012.5
2018-05-01T00:24:43.195Z,1012.59
2018-05-01T00:25:43.133Z,1012.56
2018-05-01T00:26:43.085Z,1012.55
2018-05-01T00:27:43.186Z,1012.58
2018-05-01T00:28:43.189Z,1012.57
2018-05-01T00:29:43.297Z,1012.64
2018-05-01T00:30:43.189Z,1012.6
2018-05-01T00:31:43.099Z,1012.62
2018-05-01T00:32:43.234Z,1012.62
2018-05-01T00:33:43.055Z,1012.58
2018-05-01T00:34:43.071Z,1012.61
2018-05-01T00:35:43.304Z,1012.57
2018-05-01T00:36:43.181Z,1012.52
2018-05-01T00:37:43.038Z,1012.58
2018-05-01T00:38:43.261Z,1012.57
2018-05-01T00:39:43.187Z,1012.56
2018-05-01T00:40:43.041Z,1012.5
2018-05-01T00:41:43.219Z,1012.59
2018-05-01T00:42:43.160Z,1012.58
2018-05-01T00:43:43.191Z,1012.61
2018-05-01T00:44:43.184Z,1012.63
2018-05-01T00:45:43.160Z,1012.56
2018-05-01T00:46:43.231Z,1012.57
2018-05-01T00:47:43.352Z,1012.62
2018-05-01T00:48:43.215Z,1012.61
2018-05-01T00:49:43.149Z,1012.56
2018-05-01T00:50:43.169Z,1012.63
2018-05-01T00:51:43.384Z,1012.56
2018-05-01T00:52:43.381Z,1012.61
2018-05-01T00:53:43.346Z,1012.54
2018-05-01T00:54:43.228Z,1012.63
2018-05-01T00:55:43.147Z,1012.63
2018-05-01T00:56:43.100Z,1012.63
2018-05-01T00:57:43.269Z,1012.64
2018-05-01T00:58:43.324Z,1012.6
2018-05-01T00:59:43.066Z,1012.63
2018-05-01T01:00:43.220Z,1012.62
2018-05-01T01:01:43.226Z,1012.63
2018-05-01T01:02:43.153Z,1012.65
2018-05-01T01:03:43.624Z,1012.61
2018-05-01T01:04:43.174Z,1012.62
2018-05-01T01:05:43.359Z,1012.66
2018-05-01T01:06:43.262Z,1012.62
2018-05-01T01:07:43.258Z,1012.67
2018-05-01T01:08:43.283Z,1012.64
2018-05-01T01:09:43.019Z,1012.58
2018-05-01T01:10:43.083Z,1012.66
2018-05-01T01:11:43.299Z,1012.71
2018-05-01T01:12:43.287Z,1012.67
2018-05-01T01:13:43.204Z,1012.74
2018-05-01T01:14:43.090Z,1012.7
2018-05-01T01:15:43.052Z,1012.71
2018-05-01T01:16:43.247Z,1012.71
2018-05-01T01:17:43.202Z,1012.71
2018-05-01T01:19:06.820Z,1012.65
2018-05-01T01:19:43.212Z,1012.7
2018-05-01T01:20:43.200Z,1012.68
2018-05-01T01:21:43.076Z,1012.73
2018-05-01T01:22:43.298Z,1012.74
2018-05-01T01:23:43.265Z,1012.79
2018-05-01T01:24:43.150Z,1012.85
2018-05-01T01:25:43.293Z,1012.94
2018-05-01T01:26:43.143Z,1012.96
2018-05-01T01:27:43.227Z,1013.01
2018-05-01T01:28:43.237Z,1013.02
2018-05-01T01:29:43.342Z,1013.05
2018-05-01T01:30:43.092Z,1013.02
2018-05-01T01:31:43.151Z,1013.04
2018-05-01T01:32:43.221Z,1013.06
2018-05-01T01:33:43.280Z,1013.04
2018-05-01T01:34:43.248Z,1013.07
2018-05-01T01:35:43.148Z,1013.06
2018-05-01T01:36:43.194Z,1013.03
2018-05-01T01:37:43.046Z,1013.11
2018-05-01T01:38:43.172Z,1013.11
2018-05-01T01:39:43.137Z,1013.13
2018-05-01T01:40:43.152Z,1013.16
2018-05-01T01:41:43.148Z,1013.18
2018-05-01T01:42:43.191Z,1013.19
2018-05-01T01:43:43.163Z,1013.22
2018-05-01T01:44:43.288Z,1013.25
2018-05-01T01:45:43.165Z,1013.26
2018-05-01T01:46:43.136Z,1013.26
2018-05-01T01:47:43.129Z,1013.34
2018-05-01T01:48:43.166Z,1013.38
2018-05-01T01:49:43.085Z,1013.42
2018-05-01T01:50:43.111Z,1013.38
2018-05-01T01:51:43.227Z,1013.45
2018-05-01T01:52:43.125Z,1013.45
2018-05-01T01:53:43.148Z,1013.46
2018-05-01T01:54:43.136Z,1013.51
2018-05-01T01:55:43.104Z,1013.46
2018-05-01T01:56:43.130Z,1013.54
2018-05-01T01:57:43.074Z,1013.52
2018-05-01T01:58:43.142Z,1013.51
2018-05-01T01:59:43.171Z,1013.51
2018-05-01T02:00:43.213Z,1013.55
2018-05-01T02:01:43.208Z,1013.59
2018-05-01T02:02:43.080Z,1013.6
2018-05-01T02:03:43.096Z,1013.57
2018-05-01T02:04:43.107Z,1013.65
2018-05-01T02:05:43.147Z,1013.65
2018-05-01T02:06:43.144Z,1013.68
2018-05-01T02:07:43.258Z,1013.66
2018-05-01T02:08:43.397Z,1013.69
2018-05-01T02:09:43.365Z,1013.68
2018-05-01T02:10:43.297Z,1013.76
2018-05-01T02:11:43.238Z,1013.75
2018-05-01T02:12:43.132Z,1013.77
2018-05-01T02:13:43.275Z,1013.79
2018-05-01T02:14:43.139Z,1013.76
2018-05-01T02:15:43.001Z,1013.77
2018-05-01T02:16:43.257Z,1013.82
2018-05-01T02:17:43.240Z,1013.81
2018-05-01T02:18:43.196Z,1013.78
2018-05-01T02:19:43.206Z,1013.79
2018-05-01T02:20:43.106Z,1013.82
2018-05-01T02:21:43.272Z,1013.85
2018-05-01T02:22:43.212Z,1013.85
2018-05-01T02:23:43.094Z,1013.81
2018-05-01T02:24:43.181Z,1013.81
2018-05-01T02:25:43.162Z,1013.82
2018-05-01T02:26:43.217Z,1013.85
2018-05-01T02:27:43.087Z,1013.9
2018-05-01T02:28:43.302Z,1013.87
2018-05-01T02:29:43.041Z,1013.88
2018-05-01T02:30:43.055Z,1013.93
2018-05-01T02:31:43.180Z,1013.93
2018-05-01T02:32:43.183Z,1013.87
2018-05-01T02:33:43.150Z,1013.89
2018-05-01T02:34:43.192Z,1013.85
2018-05-01T02:35:43.279Z,1013.85
2018-05-01T02:36:43.134Z,1013.91
2018-05-01T02:37:43.096Z,1013.9
2018-05-01T02:38:43.237Z,1013.97
2018-05-01T02:39:43.243Z,1013.94
2018-05-01T02:40:43.237Z,1013.99
2018-05-01T02:41:43.130Z,1013.99
2018-05-01T02:42:43.019Z,1013.97
2018-05-01T02:43:43.060Z,1013.96
2018-05-01T02:44:43.145Z,1013.99
2018-05-01T02:45:43.212Z,1014.02
2018-05-01T02:46:43.194Z,1013.98
2018-05-01T02:47:43.096Z,1014.01
2018-05-01T02:48:43.263Z,1014.03
2018-05-01T02:49:43.048Z,1014.09
2018-05-01T02:50:43.124Z,1014.09
2018-05-01T02:51:43.160Z,1014.17
2018-05-01T02:52:43.239Z,1014.17
2018-05-01T02:53:43.026Z,1014.13
2018-05-01T02:54:43.156Z,1014.17
2018-05-01T02:55:43.115Z,1014.15
2018-05-01T02:56:43.172Z,1014.18
2018-05-01T02:57:43.120Z,1014.21
2018-05-01T02:58:43.105Z,1014.21
2018-05-01T02:59:43.039Z,1014.21
2018-05-01T03:00:43.311Z,1014.22
2018-05-01T03:01:43.231Z,1014.22
2018-05-01T03:02:43.232Z,1014.23
2018-05-01T03:03:43.125Z,1014.22
2018-05-01T03:04:43.131Z,1014.26
2018-05-01T03:05:43.072Z,1014.28
2018-05-01T03:06:43.089Z,1014.26
2018-05-01T03:07:43.057Z,1014.31
2018-05-01T03:08:43.228Z,1014.29
2018-05-01T03:09:43.318Z,1014.34
2018-05-01T03:10:43.114Z,1014.31
2018-05-01T03:11:43.193Z,1014.35
2018-05-01T03:12:43.102Z,1014.38
2018-05-01T03:13:43.182Z,1014.43
2018-05-01T03:14:43.322Z,1014.4
2018-05-01T03:15:43.188Z,1014.41
2018-05-01T03:16:43.178Z,1014.43
2018-05-01T03:17:43.131Z,1014.37
2018-05-01T03:18:43.300Z,1014.38
2018-05-01T03:19:43.090Z,1014.37
2018-05-01T03:20:43.201Z,1014.38
2018-05-01T03:21:43.182Z,1014.39
2018-05-01T03:22:43.323Z,1014.37
2018-05-01T03:23:43.248Z,1014.37
2018-05-01T03:24:42.939Z,1014.41
2018-05-01T03:25:43.058Z,1014.39
2018-05-01T03:26:43.053Z,1014.42
2018-05-01T03:27:43.176Z,1014.45
2018-05-01T03:28:43.175Z,1014.45
2018-05-01T03:29:43.247Z,1014.44
2018-05-01T03:30:43.110Z,1014.5
2018-05-01T03:31:43.032Z,1014.53
2018-05-01T03:32:43.147Z,1014.54
2018-05-01T03:33:43.330Z,1014.58
2018-05-01T03:34:43.012Z,1014.57
2018-05-01T03:35:43.059Z,1014.54
2018-05-01T03:36:43.188Z,1014.62
2018-05-01T03:37:43.281Z,1014.6
2018-05-01T03:38:43.168Z,1014.63
2018-05-01T03:39:43.135Z,1014.67
2018-05-01T03:40:43.147Z,1014.73
2018-05-01T03:41:43.155Z,1014.72
2018-05-01T03:42:43.049Z,1014.73
2018-05-01T03:43:43.301Z,1014.78
2018-05-01T03:44:43.352Z,1014.79
2018-05-01T03:45:43.151Z,1014.76
2018-05-01T03:46:43.465Z,1014.77
2018-05-01T03:47:43.314Z,1014.79
2018-05-01T03:48:43.318Z,1014.77
2018-05-01T03:49:42.990Z,1014.78
2018-05-01T03:50:43.039Z,1014.84
2018-05-01T03:51:43.221Z,1014.84
2018-05-01T03:52:43.370Z,1014.83
2018-05-01T03:53:43.029Z,1014.86
2018-05-01T03:54:43.132Z,1014.89
2018-05-01T03:55:43.199Z,1014.92
2018-05-01T03:56:43.075Z,1014.9
2018-05-01T03:57:43.211Z,1014.9
2018-05-01T03:58:43.061Z,1014.92
2018-05-01T03:59:43.161Z,1014.92
2018-05-01T04:00:43.238Z,1014.95
2018-05-01T04:01:43.097Z,1014.92
2018-05-01T04:02:43.157Z,1014.95
2018-05-01T04:03:43.069Z,1014.97
2018-05-01T04:04:43.024Z,1014.98
2018-05-01T04:05:43.278Z,1015
2018-05-01T04:06:43.123Z,1015.05
2018-05-01T04:07:43.206Z,1015.03
2018-05-01T04:08:43.150Z,1015.04
2018-05-01T04:10:06.967Z,1015.09
2018-05-01T04:10:43.190Z,1015.13
2018-05-01T04:11:43.225Z,1015.1
2018-05-01T04:12:43.141Z,1015.13
2018-05-01T04:13:43.269Z,1015.16
2018-05-01T04:14:43.089Z,1015.17
2018-05-01T04:15:43.268Z,1015.19
2018-05-01T04:16:43.187Z,1015.18
2018-05-01T04:17:42.982Z,1015.2
2018-05-01T04:18:43.033Z,1015.22
2018-05-01T04:19:43.238Z,1015.22
2018-05-01T04:20:43.047Z,1015.25
2018-05-01T04:21:43.343Z,1015.26
2018-05-01T04:22:43.282Z,1015.23
2018-05-01T04:23:43.152Z,1015.22
2018-05-01T04:24:43.120Z,1015.2
2018-05-01T04:25:43.260Z,1015.23
2018-05-01T04:26:43.195Z,1015.23
2018-05-01T04:27:43.142Z,1015.22
2018-05-01T04:28:42.982Z,1015.21
2018-05-01T04:29:43.161Z,1015.29
2018-05-01T04:30:43.258Z,1015.26
2018-05-01T04:31:43.116Z,1015.25
2018-05-01T04:37:36.031Z,1015.36
2018-05-01T04:38:36.116Z,1015.36
2018-05-01T04:39:35.921Z,1015.42
2018-05-01T04:40:35.988Z,1015.4
2018-05-01T04:41:36.082Z,1015.35
2018-05-01T04:42:36.098Z,1015.34
2018-05-01T04:43:36.046Z,1015.35
2018-05-01T04:44:36.130Z,1015.4
2018-05-01T04:45:36.157Z,1015.39
2018-05-01T04:46:35.959Z,1015.34
2018-05-01T04:47:36.017Z,1015.4
2018-05-01T04:48:36.036Z,1015.35
2018-05-01T04:49:37.994Z,1015.4
2018-05-01T04:50:35.980Z,1015.36
2018-05-01T04:51:36.288Z,1015.44
2018-05-01T04:52:36.071Z,1015.47
2018-05-01T04:53:36.065Z,1015.47
2018-05-01T04:54:36.045Z,1015.51
2018-05-01T04:55:35.936Z,1015.56
2018-05-01T04:56:36.107Z,1015.59
2018-05-01T04:57:36.039Z,1015.59
2018-05-01T04:58:36.298Z,1015.63
2018-05-01T04:59:36.084Z,1015.67
2018-05-01T05:00:36.084Z,1015.67
2018-05-01T05:01:36.060Z,1015.71
2018-05-01T05:02:35.943Z,1015.73
2018-05-01T05:03:36.085Z,1015.69
2018-05-01T05:04:36.077Z,1015.7
2018-05-01T05:05:36.141Z,1015.73
2018-05-01T05:06:35.992Z,1015.7
2018-05-01T05:07:36.213Z,1015.74
2018-05-01T05:08:35.994Z,1015.73
2018-05-01T05:09:36.286Z,1015.73
2018-05-01T05:10:35.952Z,1015.71
2018-05-01T05:11:35.985Z,1015.7
2018-05-01T05:12:36.095Z,1015.69
2018-05-01T05:13:36.442Z,1015.65
2018-05-01T05:14:36.032Z,1015.72
2018-05-01T05:15:36.080Z,1015.7
2018-05-01T05:16:36.115Z,1015.7
2018-05-01T05:17:36.100Z,1015.68
2018-05-01T05:18:36.059Z,1015.71
2018-05-01T05:19:36.095Z,1015.7
2018-05-01T05:20:36.134Z,1015.72
2018-05-01T05:21:36.087Z,1015.74
2018-05-01T05:22:35.994Z,1015.78
2018-05-01T05:23:36.221Z,1015.78
2018-05-01T05:24:36.028Z,1015.77
2018-05-01T05:25:36.184Z,1015.85
2018-05-01T05:26:36.172Z,1015.8
2018-05-01T05:27:36.133Z,1015.84
2018-05-01T05:28:36.052Z,1015.89
2018-05-01T05:29:36.077Z,1015.89
2018-05-01T05:30:36.214Z,1015.91
2018-05-01T05:31:36.053Z,1015.89
2018-05-01T05:32:36.336Z,1015.89
2018-05-01T05:33:36.124Z,1015.91
2018-05-01T05:34:36.169Z,1015.92
2018-05-01T05:35:36.297Z,1015.88
2018-05-01T05:36:36.174Z,1015.91
2018-05-01T05:37:36.160Z,1015.92
2018-05-01T05:38:35.964Z,1015.91
2018-05-01T05:39:35.994Z,1015.93
2018-05-01T05:40:35.912Z,1015.93
2018-05-01T05:41:35.968Z,1015.96
2018-05-01T05:42:36.385Z,1015.96
2018-05-01T05:43:36.213Z,1016
2018-05-01T05:44:35.926Z,1015.99
2018-05-01T05:45:35.993Z,1016.02
2018-05-01T05:46:36.209Z,1015.99
2018-05-01T05:47:36.141Z,1016.01
2018-05-01T05:48:35.979Z,1016.04
2018-05-01T05:49:36.141Z,1016.05
2018-05-01T05:50:36.174Z,1016.01
2018-05-01T05:51:36.153Z,1016.02
2018-05-01T05:52:35.983Z,1016.03
2018-05-01T05:53:35.935Z,1016.11
2018-05-01T05:54:36.195Z,1016.11
2018-05-01T05:55:36.168Z,1016.15
2018-05-01T05:56:36.057Z,1016.17
2018-05-01T05:57:35.991Z,1016.19
2018-05-01T05:58:36.183Z,1016.21
2018-05-01T05:59:35.920Z,1016.24
2018-05-01T06:00:36.056Z,1016.25
2018-05-01T06:01:35.964Z,1016.24
2018-05-01T06:02:36.066Z,1016.26
2018-05-01T06:03:36.079Z,1016.29
2018-05-01T06:04:36.147Z,1016.29
2018-05-01T06:05:35.958Z,1016.31
2018-05-01T06:06:36.287Z,1016.29
2018-05-01T06:07:36.236Z,1016.23
2018-05-01T06:08:36.184Z,1016.29
2018-05-01T06:09:36.065Z,1016.27
2018-05-01T06:10:36.074Z,1016.31
2018-05-01T06:11:36.079Z,1016.33
2018-05-01T06:12:36.068Z,1016.35
2018-05-01T06:13:36.146Z,1016.38
2018-05-01T06:14:36.048Z,1016.37
2018-05-01T06:15:36.201Z,1016.39
2018-05-01T06:16:36.109Z,1016.37
2018-05-01T06:17:36.092Z,1016.39
2018-05-01T06:18:35.958Z,1016.39
2018-05-01T06:19:35.912Z,1016.35
2018-05-01T06:20:36.109Z,1016.37
2018-05-01T06:21:36.068Z,1016.4
2018-05-01T06:22:35.977Z,1016.4
2018-05-01T06:23:36.121Z,1016.38
2018-05-01T06:24:36.128Z,1016.41
2018-05-01T06:25:35.945Z,1016.4
2018-05-01T06:26:36.021Z,1016.4
2018-05-01T06:27:35.807Z,1016.36
2018-05-01T06:28:36.124Z,1016.37
2018-05-01T06:29:36.013Z,1016.39
2018-05-01T06:30:36.051Z,1016.38
2018-05-01T06:31:36.113Z,1016.4
2018-05-01T06:32:35.980Z,1016.43
2018-05-01T06:33:36.057Z,1016.51
2018-05-01T06:34:36.002Z,1016.5
2018-05-01T06:35:36.056Z,1016.49
2018-05-01T06:36:36.031Z,1016.49
2018-05-01T06:37:35.954Z,1016.53
2018-05-01T06:38:36.004Z,1016.53
2018-05-01T06:39:35.935Z,1016.48
2018-05-01T06:40:36.075Z,1016.56
2018-05-01T06:41:36.140Z,1016.6
2018-05-01T06:42:36.143Z,1016.55
2018-05-01T06:43:36.106Z,1016.59
2018-05-01T06:44:36.117Z,1016.65
2018-05-01T06:45:35.996Z,1016.65
2018-05-01T06:46:36.245Z,1016.72
2018-05-01T06:47:36.135Z,1016.69
2018-05-01T06:48:36.055Z,1016.76
2018-05-01T06:49:36.065Z,1016.8
2018-05-01T06:50:36.046Z,1016.77
2018-05-01T06:51:35.992Z,1016.81
2018-05-01T06:52:36.197Z,1016.88
2018-05-01T06:53:36.443Z,1016.85
2018-05-01T06:54:36.201Z,1016.9
2018-05-01T06:55:36.074Z,1016.91
2018-05-01T06:56:35.996Z,1016.88
2018-05-01T06:57:36.295Z,1016.9
2018-05-01T06:58:36.008Z,1016.93
2018-05-01T06:59:36.049Z,1016.93
2018-05-01T07:00:36.200Z,1016.91
2018-05-01T07:01:36.075Z,1016.96
2018-05-01T07:02:36.175Z,1016.91
2018-05-01T07:03:36.111Z,1016.96
2018-05-01T07:04:36.891Z,1016.95
2018-05-01T07:05:36.201Z,1016.96
2018-05-01T07:06:36.064Z,1016.9
2018-05-01T07:07:36.076Z,1016.89
2018-05-01T07:08:36.256Z,1016.89
2018-05-01T07:09:36.063Z,1016.95
2018-05-01T07:10:35.987Z,1016.96
2018-05-01T07:11:36.061Z,1016.93
2018-05-01T07:12:36.083Z,1016.96
2018-05-01T07:13:36.169Z,1016.92
2018-05-01T07:14:36.152Z,1016.87
2018-05-01T07:15:35.998Z,1016.88
2018-05-01T07:16:36.243Z,1016.83
2018-05-01T07:17:36.079Z,1016.78
2018-05-01T07:18:36.255Z,1016.8
2018-05-01T07:19:36.117Z,1016.75
2018-05-01T07:20:35.992Z,1016.75
2018-05-01T07:21:36.134Z,1016.75
2018-05-01T07:22:36.029Z,1016.79
2018-05-01T07:23:36.075Z,1016.81
2018-05-01T07:24:36.118Z,1016.77
2018-05-01T07:25:36.210Z,1016.79
2018-05-01T07:26:36.169Z,1016.84
2018-05-01T07:27:36.219Z,1016.82
2018-05-01T07:28:36.334Z,1016.84
2018-05-01T07:29:36.205Z,1016.84
2018-05-01T07:30:36.184Z,1016.8
2018-05-01T07:31:36.055Z,1016.8
2018-05-01T07:32:36.072Z,1016.82
2018-05-01T07:33:36.100Z,1016.83
2018-05-01T07:34:36.009Z,1016.87
2018-05-01T07:35:36.405Z,1016.83
2018-05-01T07:36:36.200Z,1016.8
2018-05-01T07:37:36.087Z,1016.84
2018-05-01T07:38:36.082Z,1016.82
2018-05-01T07:39:36.065Z,1016.8
2018-05-01T07:40:35.937Z,1016.82
2018-05-01T07:41:36.591Z,1016.81
2018-05-01T07:42:36.253Z,1016.82
2018-05-01T07:43:36.076Z,1016.81
2018-05-01T07:44:36.082Z,1016.82
2018-05-01T07:45:36.149Z,1016.83
2018-05-01T07:46:36.215Z,1016.82
2018-05-01T07:47:36.161Z,1016.86
2018-05-01T07:48:36.122Z,1016.84
2018-05-01T07:49:36.144Z,1016.81
2018-05-01T07:50:36.018Z,1016.87
2018-05-01T07:51:36.045Z,1016.89
2018-05-01T07:52:36.036Z,1016.84
2018-05-01T07:53:35.990Z,1016.83
2018-05-01T07:54:36.067Z,1016.91
2018-05-01T07:55:36.110Z,1016.91
2018-05-01T07:56:36.043Z,1016.85
2018-05-01T07:57:36.290Z,1016.88
2018-05-01T07:58:36.207Z,1016.89
2018-05-01T07:59:35.997Z,1016.88
2018-05-01T08:00:35.978Z,1016.88
2018-05-01T08:01:36.092Z,1016.87
2018-05-01T08:02:36.352Z,1016.89
2018-05-01T08:03:36.046Z,1016.9
2018-05-01T08:04:36.326Z,1016.89
2018-05-01T08:05:36.427Z,1016.87
2018-05-01T08:06:36.212Z,1016.9
2018-05-01T08:07:36.032Z,1016.92
2018-05-01T08:08:36.172Z,1016.91
2018-05-01T08:09:35.985Z,1016.89
2018-05-01T08:10:35.970Z,1016.89
2018-05-01T08:11:36.226Z,1016.93
2018-05-01T08:12:36.053Z,1016.98
2018-05-01T08:13:36.071Z,1016.92
2018-05-01T08:14:35.984Z,1016.98
2018-05-01T08:15:36.362Z,1016.96
2018-05-01T08:16:36.190Z,1016.97
2018-05-01T08:17:36.140Z,1016.94
2018-05-01T08:18:37.144Z,1017.07
2018-05-01T08:19:36.070Z,1017.07
2018-05-01T08:20:36.192Z,1017.1
2018-05-01T08:21:36.048Z,1017.13
2018-05-01T08:22:36.091Z,1017.11
2018-05-01T08:23:36.032Z,1017.08
2018-05-01T08:24:36.142Z,1017.05
2018-05-01T08:25:36.056Z,1017.05
2018-05-01T08:26:36.110Z,1017.05
2018-05-01T08:27:36.115Z,1017.04
2018-05-01T08:28:36.067Z,1016.94
2018-05-01T08:29:36.173Z,1017
2018-05-01T08:30:36.445Z,1016.93
2018-05-01T08:31:35.939Z,1017.02
2018-05-01T08:32:36.077Z,1017.03
2018-05-01T08:33:36.050Z,1016.99
2018-05-01T08:34:36.160Z,1017.09
2018-05-01T08:35:36.107Z,1017.11
2018-05-01T08:36:36.207Z,1017.15
2018-05-01T08:37:36.458Z,1017.15
2018-05-01T08:38:36.116Z,1017.19
2018-05-01T08:39:36.046Z,1017.17
2018-05-01T08:40:36.095Z,1017.18
2018-05-01T08:41:36.017Z,1017.27
2018-05-01T08:42:36.285Z,1017.25
2018-05-01T08:43:36.122Z,1017.25
2018-05-01T08:44:36.036Z,1017.2
2018-05-01T08:45:36.240Z,1017.16
2018-05-01T08:46:35.990Z,1017.18
2018-05-01T08:47:36.724Z,1017.13
2018-05-01T08:48:36.107Z,1017.1
2018-05-01T08:49:36.101Z,1017.07
2018-05-01T08:50:36.115Z,1017.06
2018-05-01T08:51:36.121Z,1017.05
2018-05-01T08:52:35.992Z,1017.07
2018-05-01T08:53:35.984Z,1017.11
2018-05-01T08:54:35.964Z,1017.15
2018-05-01T08:55:36.232Z,1017.14
2018-05-01T08:56:36.221Z,1017.14
2018-05-01T08:57:36.069Z,1017.15
2018-05-01T08:58:36.325Z,1017.14
2018-05-01T08:59:36.193Z,1017.17
2018-05-01T09:00:35.949Z,1017.16
2018-05-01T09:01:36.183Z,1017.12
2018-05-01T09:02:36.010Z,1017.17
2018-05-01T09:03:36.128Z,1017.22
2018-05-01T09:04:36.067Z,1017.27
2018-05-01T09:05:36.150Z,1017.26
2018-05-01T09:06:36.206Z,1017.23
2018-05-01T09:07:36.195Z,1017.25
2018-05-01T09:08:36.115Z,1017.26
2018-05-01T09:09:36.278Z,1017.28
2018-05-01T09:10:36.317Z,1017.27
2018-05-01T09:11:36.035Z,1017.27
2018-05-01T09:12:53.027Z,1017.3
2018-05-01T09:13:36.095Z,1017.4
2018-05-01T09:14:36.044Z,1017.36
2018-05-01T09:15:35.786Z,1017.38
2018-05-01T09:16:35.883Z,1017.43
2018-05-01T09:17:36.130Z,1017.49
2018-05-01T09:18:35.974Z,1017.46
2018-05-01T09:19:36.090Z,1017.52
2018-05-01T09:20:36.271Z,1017.48
2018-05-01T09:21:35.965Z,1017.51
2018-05-01T09:22:36.080Z,1017.56
2018-05-01T09:23:36.048Z,1017.55
2018-05-01T09:24:36.124Z,1017.55
2018-05-01T09:25:36.161Z,1017.56
2018-05-01T09:26:36.144Z,1017.52
2018-05-01T09:27:36.083Z,1017.55
2018-05-01T09:28:36.171Z,1017.58
2018-05-01T09:29:36.030Z,1017.58
2018-05-01T09:30:36.088Z,1017.67
2018-05-01T09:31:36.057Z,1017.68
2018-05-01T09:32:36.308Z,1017.67
2018-05-01T09:33:35.933Z,1017.72
2018-05-01T09:34:35.943Z,1017.69
2018-05-01T09:35:35.971Z,1017.78
2018-05-01T09:36:36.075Z,1017.79
2018-05-01T09:37:36.111Z,1017.77
2018-05-01T09:38:36.159Z,1017.79
2018-05-01T09:39:36.000Z,1017.81
2018-05-01T09:40:36.107Z,1017.83
2018-05-01T09:41:35.972Z,1017.79
2018-05-01T09:42:36.025Z,1017.83
2018-05-01T09:43:36.040Z,1017.78
2018-05-01T09:44:35.982Z,1017.83
2018-05-01T09:45:36.008Z,1017.78
2018-05-01T09:46:35.965Z,1017.79
2018-05-01T09:47:36.146Z,1017.78
2018-05-01T09:48:35.937Z,1017.73
2018-05-01T09:49:36.178Z,1017.7
2018-05-01T09:50:36.000Z,1017.72
2018-05-01T09:51:36.115Z,1017.71
2018-05-01T09:52:35.931Z,1017.72
2018-05-01T09:53:35.953Z,1017.72
2018-05-01T09:54:36.082Z,1017.75
2018-05-01T09:55:36.178Z,1017.69
2018-05-01T09:56:35.975Z,1017.74
2018-05-01T09:57:36.060Z,1017.76
2018-05-01T09:58:35.996Z,1017.74
2018-05-01T09:59:35.992Z,1017.72
2018-05-01T10:00:35.936Z,1017.67
2018-05-01T10:01:36.085Z,1017.67
2018-05-01T10:02:35.998Z,1017.63
2018-05-01T10:03:36.096Z,1017.69
2018-05-01T10:04:35.909Z,1017.67
2018-05-01T10:05:36.037Z,1017.72
2018-05-01T10:06:35.943Z,1017.65
2018-05-01T10:07:36.006Z,1017.68
2018-05-01T10:08:36.016Z,1017.72
2018-05-01T10:09:36.096Z,1017.72
2018-05-01T10:10:35.933Z,1017.74
2018-05-01T10:11:36.086Z,1017.75
2018-05-01T10:12:35.989Z,1017.75
2018-05-01T10:13:36.148Z,1017.81
2018-05-01T10:14:36.016Z,1017.71
2018-05-01T10:15:35.973Z,1017.71
2018-05-01T10:16:35.891Z,1017.72
2018-05-01T10:17:35.925Z,1017.61
2018-05-01T10:18:36.063Z,1017.71
2018-05-01T10:19:36.051Z,1017.58
2018-05-01T10:20:35.928Z,1017.62
2018-05-01T10:21:36.087Z,1017.68
2018-05-01T10:22:36.019Z,1017.66
2018-05-01T10:23:35.983Z,1017.63
2018-05-01T10:24:35.904Z,1017.68
2018-05-01T10:25:36.053Z,1017.71
2018-05-01T10:26:35.949Z,1017.68
2018-05-01T10:27:35.995Z,1017.72
2018-05-01T10:28:36.066Z,1017.71
2018-05-01T10:29:36.269Z,1017.68
2018-05-01T10:30:36.029Z,1017.62
2018-05-01T10:31:35.935Z,1017.65
2018-05-01T10:32:36.100Z,1017.59
2018-05-01T10:33:35.971Z,1017.59
2018-05-01T10:34:36.150Z,1017.58
2018-05-01T10:35:36.104Z,1017.62
2018-05-01T10:36:36.085Z,1017.63
2018-05-01T10:37:35.965Z,1017.61
2018-05-01T10:38:36.791Z,1017.62
2018-05-01T10:39:35.912Z,1017.58
2018-05-01T10:40:36.144Z,1017.71
2018-05-01T10:41:36.189Z,1017.67
2018-05-01T10:42:36.004Z,1017.65
2018-05-01T10:43:36.050Z,1017.66
2018-05-01T10:44:35.898Z,1017.71
2018-05-01T10:45:36.082Z,1017.7
2018-05-01T10:46:36.127Z,1017.66
2018-05-01T10:47:35.971Z,1017.65
2018-05-01T10:48:35.987Z,1017.58
2018-05-01T10:49:36.073Z,1017.59
2018-05-01T10:50:36.046Z,1017.58
2018-05-01T10:51:36.130Z,1017.52
2018-05-01T10:52:36.102Z,1017.56
2018-05-01T10:53:36.136Z,1017.54
2018-05-01T10:54:36.316Z,1017.55
2018-05-01T10:55:36.079Z,1017.57
2018-05-01T10:56:36.042Z,1017.54
2018-05-01T10:57:35.843Z,1017.49
2018-05-01T10:58:35.955Z,1017.5
2018-05-01T10:59:35.899Z,1017.49
2018-05-01T11:00:36.076Z,1017.55
2018-05-01T11:01:35.912Z,1017.52
2018-05-01T11:02:36.016Z,1017.48
2018-05-01T11:03:36.117Z,1017.43
2018-05-01T11:04:35.879Z,1017.44
2018-05-01T11:05:35.963Z,1017.55
2018-05-01T11:06:36.097Z,1017.54
2018-05-01T11:07:35.949Z,1017.57
2018-05-01T11:08:36.092Z,1017.51
2018-05-01T11:09:35.799Z,1017.48
2018-05-01T11:10:36.011Z,1017.53
2018-05-01T11:11:36.045Z,1017.52
2018-05-01T11:12:35.887Z,1017.5
2018-05-01T11:13:35.939Z,1017.46
2018-05-01T11:14:35.943Z,1017.51
2018-05-01T11:15:36.004Z,1017.46
2018-05-01T11:16:35.949Z,1017.49
2018-05-01T11:17:36.235Z,1017.39
2018-05-01T11:18:36.050Z,1017.42
2018-05-01T11:19:36.090Z,1017.52
2018-05-01T11:20:36.099Z,1017.46
2018-05-01T11:21:36.128Z,1017.51
2018-05-01T11:22:36.055Z,1017.47
2018-05-01T11:23:35.857Z,1017.43
2018-05-01T11:24:36.093Z,1017.45
2018-05-01T11:25:35.988Z,1017.43
2018-05-01T11:26:35.977Z,1017.37
2018-05-01T11:27:35.919Z,1017.32
2018-05-01T11:28:36.205Z,1017.26
2018-05-01T11:29:35.933Z,1017.3
2018-05-01T11:30:36.112Z,1017.33
2018-05-01T11:31:35.911Z,1017.32
2018-05-01T11:32:35.936Z,1017.31
2018-05-01T11:33:36.206Z,1017.33
2018-05-01T11:34:35.876Z,1017.37
2018-05-01T11:35:35.932Z,1017.33
2018-05-01T11:36:36.100Z,1017.27
2018-05-01T11:37:36.058Z,1017.27
2018-05-01T11:38:35.998Z,1017.26
2018-05-01T11:39:36.090Z,1017.31
2018-05-01T11:40:35.882Z,1017.31
2018-05-01T11:41:36.090Z,1017.3
2018-05-01T11:42:36.083Z,1017.39
2018-05-01T11:43:36.137Z,1017.36
2018-05-01T11:44:36.050Z,1017.35
2018-05-01T11:45:36.068Z,1017.42
2018-05-01T11:46:35.981Z,1017.36
2018-05-01T11:47:36.027Z,1017.5
2018-05-01T11:48:35.921Z,1017.58
2018-05-01T11:49:36.044Z,1017.57
2018-05-01T11:50:37.777Z,1017.56
2018-05-01T11:51:35.872Z,1017.51
2018-05-01T11:52:35.937Z,1017.52
2018-05-01T11:53:35.979Z,1017.53
2018-05-01T11:54:36.078Z,1017.54
2018-05-01T11:55:35.994Z,1017.59
2018-05-01T11:56:36.066Z,1017.58
2018-05-01T11:57:35.905Z,1017.59
2018-05-01T11:58:36.045Z,1017.55
2018-05-01T11:59:35.866Z,1017.58
2018-05-01T12:00:36.120Z,1017.55
2018-05-01T12:01:35.925Z,1017.49
2018-05-01T12:02:36.115Z,1017.56
2018-05-01T12:03:36.008Z,1017.51
2018-05-01T12:04:36.002Z,1017.58
2018-05-01T12:05:36.026Z,1017.55
2018-05-01T12:06:36.000Z,1017.6
2018-05-01T12:07:35.816Z,1017.57
2018-05-01T12:08:35.990Z,1017.61
2018-05-01T12:09:35.876Z,1017.6
2018-05-01T12:10:36.144Z,1017.62
2018-05-01T12:11:35.942Z,1017.6
2018-05-01T12:12:36.052Z,1017.74
2018-05-01T12:13:35.926Z,1017.74